createdAt,value
2022-08-08T00:01:08.885Z,102546.28
2022-08-08T00:03:51.178Z,102580.91
2022-08-08T00:06:36.388Z,102576.50
2022-08-08T00:09:16.925Z,102581.91
2022-08-08T00:12:07.320Z,102534.78
2022-08-08T00:15:00.028Z,102577.13
2022-08-08T00:18:01.601Z,102550.59
2022-08-08T00:20:39.709Z,102573.72
2022-08-08T00:23:14.597Z,102547.09
2022-08-08T00:25:51.324Z,102562.97
2022-08-08T00:28:35.880Z,102544.31
2022-08-08T00:32:20.714Z,102532.63
2022-08-08T00:35:03.967Z,102565.78
2022-08-08T00:37:46.904Z,102570.09
2022-08-08T00:41:10.275Z,102557.72
2022-08-08T00:44:20.622Z,102563.81
2022-08-08T00:48:05.430Z,102538.75
2022-08-08T00:51:39.071Z,102560.31
2022-08-08T00:55:06.356Z,102550.47
2022-08-08T00:58:31.802Z,102551.22
2022-08-08T01:01:15.901Z,102532.13
2022-08-08T01:04:47.628Z,102565.22
2022-08-08T01:08:11.786Z,102560.84
2022-08-08T01:11:08.207Z,102536.63
2022-08-08T01:14:53.157Z,102533.97
2022-08-08T01:18:25.292Z,102537.63
2022-08-08T01:22:12.443Z,102566.94
2022-08-08T01:25:08.979Z,102555.28
2022-08-08T01:28:11.242Z,102561.41
2022-08-08T01:32:13.197Z,102538.16
2022-08-08T01:35:11.362Z,102559.56
2022-08-08T01:38:24.611Z,102519.38
2022-08-08T01:41:10.043Z,102563.84
2022-08-08T01:43:53.395Z,102560.00
2022-08-08T01:46:47.369Z,102554.41
2022-08-08T01:49:51.888Z,102584.63
2022-08-08T01:55:16.433Z,102576.88
2022-08-08T01:56:28.731Z,102551.75
2022-08-08T01:59:07.763Z,102591.56
2022-08-08T02:02:09.235Z,102583.63
2022-08-08T02:04:58.776Z,102581.72
2022-08-08T02:07:42.011Z,102559.56
2022-08-08T02:10:47.093Z,102579.72
2022-08-08T02:13:54.546Z,102579.72
2022-08-08T02:16:28.176Z,102567.09
2022-08-08T02:19:41.842Z,102579.53
2022-08-08T02:22:28.225Z,102547.28
2022-08-08T02:25:16.429Z,102576.63
2022-08-08T02:27:55.085Z,102581.88
2022-08-08T02:30:50.241Z,102584.63
2022-08-08T02:34:08.805Z,102576.56
2022-08-08T02:36:45.728Z,102584.38
2022-08-08T02:39:59.992Z,102581.69
2022-08-08T02:44:38.105Z,102599.44
2022-08-08T02:46:59.441Z,102580.91
2022-08-08T02:50:27.689Z,102547.78
2022-08-08T02:53:32.705Z,102597.53
2022-08-08T02:57:02.083Z,102591.25
2022-08-08T03:00:29.802Z,102598.34
2022-08-08T03:05:01.334Z,102590.38
2022-08-08T03:07:19.529Z,102592.25
2022-08-08T03:10:53.405Z,102589.50
2022-08-08T03:16:04.028Z,102572.47
2022-08-08T03:16:51.704Z,102559.22
2022-08-08T03:20:08.228Z,102584.22
2022-08-08T03:22:56.234Z,102564.41
2022-08-08T03:25:35.789Z,102570.75
2022-08-08T03:28:13.926Z,102586.72
2022-08-08T03:30:49.353Z,102561.97
2022-08-08T03:33:55.134Z,102575.25
2022-08-08T03:36:30.575Z,102571.56
2022-08-08T03:39:07.609Z,102589.28
2022-08-08T03:42:28.407Z,102589.13
2022-08-08T03:44:40.338Z,102576.66
2022-08-08T03:47:22.824Z,102583.78
2022-08-08T03:49:58.722Z,102580.06
2022-08-08T03:52:33.917Z,102572.94
2022-08-08T03:55:20.164Z,102572.13
2022-08-08T03:58:31.721Z,102590.22
2022-08-08T04:01:02.262Z,102589.09
2022-08-08T04:03:58.126Z,102573.06
2022-08-08T04:06:30.811Z,102594.53
2022-08-08T04:09:10.389Z,102579.91
2022-08-08T04:11:58.901Z,102610.97
2022-08-08T04:14:50.735Z,102618.09
2022-08-08T04:17:40.889Z,102607.25
2022-08-08T04:20:10.568Z,102591.41
2022-08-08T04:22:39.322Z,102627.66
2022-08-08T04:25:13.057Z,102613.56
2022-08-08T04:28:35.026Z,102625.22
2022-08-08T04:30:36.684Z,102605.69
2022-08-08T04:33:15.734Z,102612.06
2022-08-08T04:35:51.035Z,102608.53
2022-08-08T04:38:22.264Z,102637.09
2022-08-08T04:40:54.696Z,102621.72
2022-08-08T04:43:32.324Z,102641.34
2022-08-08T04:46:19.304Z,102620.13
2022-08-08T04:48:49.952Z,102646.03
2022-08-08T04:51:23.553Z,102650.50
2022-08-08T04:54:39.805Z,102661.53
2022-08-08T04:56:56.423Z,102628.88
2022-08-08T04:59:30.074Z,102644.28
2022-08-08T05:02:00.930Z,102639.91
2022-08-08T05:04:29.868Z,102666.81
2022-08-08T05:06:58.568Z,102659.56
2022-08-08T05:09:27.086Z,102681.00
2022-08-08T05:11:58.174Z,102650.88
2022-08-08T05:14:32.811Z,102687.38
2022-08-08T05:17:10.662Z,102688.50
2022-08-08T05:20:09.527Z,102683.31
2022-08-08T05:22:34.828Z,102680.59
2022-08-08T05:25:05.404Z,102685.78
2022-08-08T05:27:41.433Z,102677.72
2022-08-08T05:30:16.333Z,102686.13
2022-08-08T05:32:50.964Z,102677.41
2022-08-08T05:35:24.774Z,102677.47
2022-08-08T05:38:01.766Z,102690.97
2022-08-08T05:40:39.508Z,102675.78
2022-08-08T05:43:17.123Z,102678.47
2022-08-08T05:46:11.099Z,102678.66
2022-08-08T05:48:42.567Z,102662.59
2022-08-08T05:51:16.199Z,102653.69
2022-08-08T05:54:24.402Z,102683.91
2022-08-08T05:56:47.464Z,102696.97
2022-08-08T06:00:00.866Z,102683.19
2022-08-08T06:02:40.905Z,102708.13
2022-08-08T06:05:34.671Z,102685.06
2022-08-08T06:08:33.329Z,102703.13
2022-08-08T06:11:07.171Z,102673.88
2022-08-08T06:13:47.066Z,102689.22
2022-08-08T06:16:27.371Z,102703.44
2022-08-08T06:19:04.055Z,102695.56
2022-08-08T06:21:51.440Z,102694.00
2022-08-08T06:24:27.145Z,102711.88
2022-08-08T06:27:06.407Z,102708.69
2022-08-08T06:29:59.681Z,102681.34
2022-08-08T06:32:38.251Z,102702.59
2022-08-08T06:36:05.984Z,102693.06
2022-08-08T06:38:09.141Z,102704.63
2022-08-08T06:40:53.915Z,102673.72
2022-08-08T06:43:33.967Z,102687.84
2022-08-08T06:46:09.034Z,102689.72
2022-08-08T06:48:39.585Z,102705.94
2022-08-08T06:51:15.890Z,102706.13
2022-08-08T06:53:51.361Z,102701.78
2022-08-08T06:56:34.896Z,102698.22
2022-08-08T06:59:09.778Z,102685.16
2022-08-08T07:02:17.232Z,102682.47
2022-08-08T07:04:49.796Z,102672.69
2022-08-08T07:07:35.255Z,102686.06
2022-08-08T07:10:08.767Z,102704.75
2022-08-08T07:12:47.737Z,102703.00
2022-08-08T07:16:03.521Z,102697.94
2022-08-08T07:18:46.260Z,102697.25
2022-08-08T07:21:24.635Z,102704.34
2022-08-08T07:24:09.551Z,102690.94
2022-08-08T07:26:50.771Z,102704.41
2022-08-08T07:29:59.864Z,102676.94
2022-08-08T07:32:15.725Z,102692.16
2022-08-08T07:35:00.522Z,102686.94
2022-08-08T07:37:56.283Z,102672.88
2022-08-08T07:40:36.785Z,102676.44
2022-08-08T07:43:12.466Z,102706.59
2022-08-08T07:46:05.385Z,102686.09
2022-08-08T07:48:37.769Z,102705.03
2022-08-08T07:51:08.144Z,102679.38
2022-08-08T07:54:06.309Z,102701.53
2022-08-08T07:56:51.103Z,102672.09
2022-08-08T07:59:22.426Z,102693.59
2022-08-08T08:02:32.941Z,102709.63
2022-08-08T08:04:54.150Z,102697.41
2022-08-08T08:07:32.181Z,102705.69
2022-08-08T08:10:12.599Z,102698.25
2022-08-08T08:12:55.252Z,102700.38
2022-08-08T08:15:32.151Z,102705.00
2022-08-08T08:18:06.703Z,102705.69
2022-08-08T08:20:44.105Z,102704.31
2022-08-08T08:23:13.812Z,102714.72
2022-08-08T08:25:55.204Z,102702.22
2022-08-08T08:28:29.085Z,102710.66
2022-08-08T08:31:04.828Z,102693.66
2022-08-08T08:33:36.718Z,102695.53
2022-08-08T08:36:18.826Z,102693.72
2022-08-08T08:38:52.855Z,102709.81
2022-08-08T08:41:31.140Z,102718.09
2022-08-08T08:44:14.543Z,102704.22
2022-08-08T08:46:50.808Z,102712.19
2022-08-08T08:49:30.691Z,102713.19
2022-08-08T08:52:04.817Z,102719.19
2022-08-08T08:54:36.621Z,102712.94
2022-08-08T08:57:15.797Z,102701.84
2022-08-08T08:59:59.780Z,102708.47
2022-08-08T09:02:37.287Z,102723.38
2022-08-08T09:05:13.979Z,102713.44
2022-08-08T09:08:12.589Z,102718.47
2022-08-08T09:10:48.229Z,102723.28
2022-08-08T09:13:25.164Z,102716.56
2022-08-08T09:16:03.477Z,102724.22
2022-08-08T09:18:35.843Z,102697.28
2022-08-08T09:22:00.861Z,102722.31
2022-08-08T09:23:54.536Z,102728.34
2022-08-08T09:26:39.603Z,102723.16
2022-08-08T09:29:22.439Z,102728.75
2022-08-08T09:32:06.401Z,102714.81
2022-08-08T09:34:52.478Z,102699.13
2022-08-08T09:37:57.173Z,102717.09
2022-08-08T09:40:40.900Z,102705.59
2022-08-08T09:44:04.546Z,102702.47
2022-08-08T09:46:25.174Z,102723.69
2022-08-08T09:49:17.908Z,102703.34
2022-08-08T09:52:01.557Z,102711.78
2022-08-08T09:54:44.333Z,102685.91
2022-08-08T09:57:19.158Z,102691.78
2022-08-08T10:00:28.893Z,102717.53
2022-08-08T10:02:45.736Z,102693.06
2022-08-08T10:05:25.346Z,102701.44
2022-08-08T10:07:59.979Z,102709.34
2022-08-08T10:10:31.997Z,102700.63
2022-08-08T10:13:14.331Z,102712.59
2022-08-08T10:16:00.254Z,102714.56
2022-08-08T10:18:33.025Z,102697.28
2022-08-08T10:21:23.083Z,102695.69
2022-08-08T10:24:04.998Z,102705.31
2022-08-08T10:26:59.298Z,102709.88
2022-08-08T10:29:59.288Z,102709.75
2022-08-08T10:32:48.373Z,102709.13
2022-08-08T10:36:08.923Z,102710.06
2022-08-08T10:38:16.973Z,102716.66
2022-08-08T10:40:53.096Z,102690.78
2022-08-08T10:43:22.982Z,102707.94
2022-08-08T10:45:56.032Z,102685.91
2022-08-08T10:48:38.901Z,102710.00
2022-08-08T10:51:24.215Z,102709.63
2022-08-08T10:53:58.178Z,102713.09
2022-08-08T10:56:32.568Z,102690.75
2022-08-08T10:59:09.348Z,102704.06
2022-08-08T11:01:39.939Z,102694.78
2022-08-08T11:04:11.842Z,102681.47
2022-08-08T11:06:41.881Z,102698.66
2022-08-08T11:09:19.693Z,102681.19
2022-08-08T11:12:05.537Z,102682.81
2022-08-08T11:14:54.317Z,102689.09
2022-08-08T11:17:58.339Z,102698.75
2022-08-08T11:20:23.713Z,102676.44
2022-08-08T11:22:59.041Z,102685.06
2022-08-08T11:25:51.814Z,102677.50
2022-08-08T11:28:30.518Z,102693.31
2022-08-08T11:31:04.065Z,102672.44
2022-08-08T11:33:52.902Z,102638.59
2022-08-08T11:36:29.309Z,102682.34
2022-08-08T11:38:58.512Z,102675.19
2022-08-08T11:41:32.458Z,102666.91
2022-08-08T11:44:03.848Z,102666.53
2022-08-08T11:46:35.170Z,102667.47
2022-08-08T11:49:11.442Z,102664.94
2022-08-08T11:51:49.839Z,102678.47
2022-08-08T11:54:33.855Z,102678.91
2022-08-08T11:57:27.354Z,102673.81
2022-08-08T12:00:01.283Z,102676.13
2022-08-08T12:02:54.535Z,102674.50
2022-08-08T12:05:34.094Z,102665.50
2022-08-08T12:08:04.190Z,102649.16
2022-08-08T12:10:36.295Z,102658.91
2022-08-08T12:13:10.444Z,102615.38
2022-08-08T12:15:49.033Z,102629.13
2022-08-08T12:18:27.443Z,102631.97
2022-08-08T12:20:59.711Z,102630.16
2022-08-08T12:23:40.397Z,102637.69
2022-08-08T12:26:27.924Z,102648.19
2022-08-08T12:29:42.398Z,102650.63
2022-08-08T12:32:20.758Z,102638.13
2022-08-08T12:35:13.081Z,102648.38
2022-08-08T12:37:48.140Z,102653.53
2022-08-08T12:40:57.064Z,102646.16
2022-08-08T12:43:43.777Z,102660.28
2022-08-08T12:46:25.248Z,102662.09
2022-08-08T12:49:25.774Z,102637.31
2022-08-08T12:51:58.922Z,102652.50
2022-08-08T12:54:36.543Z,102632.44
2022-08-08T12:57:17.286Z,102641.22
2022-08-08T13:00:05.990Z,102636.03
2022-08-08T13:02:51.832Z,102628.25
2022-08-08T13:05:26.807Z,102650.41
2022-08-08T13:08:17.330Z,102641.09
2022-08-08T13:10:56.692Z,102657.41
2022-08-08T13:13:35.305Z,102636.09
2022-08-08T13:16:20.057Z,102651.00
2022-08-08T13:18:56.926Z,102644.91
2022-08-08T13:21:49.033Z,102625.22
2022-08-08T13:24:18.614Z,102639.09
2022-08-08T13:27:11.933Z,102614.69
2022-08-08T13:29:51.160Z,102631.88
2022-08-08T13:32:25.233Z,102619.66
2022-08-08T13:34:57.081Z,102637.81
2022-08-08T13:37:52.164Z,102622.22
2022-08-08T13:40:17.764Z,102609.34
2022-08-08T13:42:55.107Z,102600.72
2022-08-08T13:45:24.122Z,102637.97
2022-08-08T13:47:58.470Z,102617.75
2022-08-08T13:50:38.840Z,102636.16
2022-08-08T13:53:25.163Z,102631.44
2022-08-08T13:56:02.353Z,102612.94
2022-08-08T13:58:31.326Z,102625.78
2022-08-08T14:01:13.677Z,102603.03
2022-08-08T14:03:55.298Z,102608.38
2022-08-08T14:06:34.095Z,102617.28
2022-08-08T14:09:24.973Z,102597.38
2022-08-08T14:11:59.869Z,102616.38
2022-08-08T14:14:40.703Z,102576.31
2022-08-08T14:17:22.086Z,102627.28
2022-08-08T14:19:57.303Z,102598.91
2022-08-08T14:22:43.074Z,102599.22
2022-08-08T14:25:15.243Z,102629.34
2022-08-08T14:27:59.567Z,102618.78
2022-08-08T14:30:35.635Z,102598.06
2022-08-08T14:33:11.203Z,102611.56
2022-08-08T14:35:44.022Z,102623.47
2022-08-08T14:38:34.010Z,102622.84
2022-08-08T14:41:18.570Z,102617.22
2022-08-08T14:44:19.551Z,102609.63
2022-08-08T14:47:00.216Z,102587.69
2022-08-08T14:50:06.588Z,102568.72
2022-08-08T14:52:26.854Z,102592.34
2022-08-08T14:54:57.361Z,102597.25
2022-08-08T14:58:03.005Z,102590.88
2022-08-08T15:00:16.190Z,102592.97
2022-08-08T15:02:59.112Z,102581.44
2022-08-08T15:05:43.108Z,102595.53
2022-08-08T15:08:35.007Z,102607.78
2022-08-08T15:11:11.486Z,102597.53
2022-08-08T15:14:01.847Z,102598.09
2022-08-08T15:16:34.563Z,102622.78
2022-08-08T15:19:05.209Z,102605.66
2022-08-08T15:21:42.537Z,102623.47
2022-08-08T15:24:14.317Z,102601.34
2022-08-08T15:26:52.368Z,102606.06
2022-08-08T15:29:22.680Z,102597.00
2022-08-08T15:32:19.902Z,102620.47
2022-08-08T15:34:41.347Z,102594.94
2022-08-08T15:37:10.139Z,102582.31
2022-08-08T15:39:41.441Z,102611.44
2022-08-08T15:42:17.743Z,102618.50
2022-08-08T15:44:59.707Z,102584.44
2022-08-08T15:47:28.010Z,102597.75
2022-08-08T15:49:59.966Z,102611.88
2022-08-08T15:52:28.541Z,102588.41
2022-08-08T15:54:57.258Z,102609.72
2022-08-08T15:57:27.739Z,102590.03
2022-08-08T16:00:25.899Z,102607.09
2022-08-08T16:02:55.708Z,102591.03
2022-08-08T16:05:35.420Z,102601.41
2022-08-08T16:08:14.468Z,102598.22
2022-08-08T16:13:09.455Z,102585.22
2022-08-08T16:13:44.976Z,102600.34
2022-08-08T16:16:17.855Z,102592.94
2022-08-08T16:18:53.453Z,102585.53
2022-08-08T16:21:29.036Z,102596.75
2022-08-08T16:23:58.450Z,102595.09
2022-08-08T16:26:34.798Z,102603.50
2022-08-08T16:29:10.718Z,102582.09
2022-08-08T16:31:49.017Z,102605.09
2022-08-08T16:34:21.765Z,102605.09
2022-08-08T16:36:50.943Z,102604.34
2022-08-08T16:39:48.887Z,102587.09
2022-08-08T16:42:17.808Z,102590.91
2022-08-08T16:44:55.132Z,102590.34
2022-08-08T16:47:31.512Z,102580.97
2022-08-08T16:50:15.565Z,102596.63
2022-08-08T16:55:06.021Z,102597.41
2022-08-08T16:55:55.709Z,102598.25
2022-08-08T16:58:31.713Z,102597.66
2022-08-08T17:01:05.783Z,102580.38
2022-08-08T17:04:00.043Z,102578.53
2022-08-08T17:06:37.222Z,102601.28
2022-08-08T17:09:14.671Z,102602.75
2022-08-08T17:11:48.753Z,102599.34
2022-08-08T17:14:27.367Z,102580.00
2022-08-08T17:17:04.286Z,102590.97
2022-08-08T17:19:37.393Z,102608.13
2022-08-08T17:22:11.147Z,102593.56
2022-08-08T17:24:40.966Z,102571.66
2022-08-08T17:27:10.469Z,102606.00
2022-08-08T17:29:43.827Z,102595.38
2022-08-08T17:32:28.994Z,102608.91
2022-08-08T17:35:53.894Z,102611.94
2022-08-08T17:37:53.323Z,102613.22
2022-08-08T17:40:22.347Z,102603.72
2022-08-08T17:42:51.964Z,102598.66
2022-08-08T17:45:23.328Z,102605.59
2022-08-08T17:47:54.974Z,102624.25
2022-08-08T17:50:25.197Z,102619.78
2022-08-08T17:52:56.543Z,102627.59
2022-08-08T17:56:06.728Z,102626.09
2022-08-08T17:58:14.922Z,102626.75
2022-08-08T18:00:43.273Z,102630.38
2022-08-08T18:03:18.706Z,102626.13
2022-08-08T18:05:51.109Z,102615.78
2022-08-08T18:08:41.130Z,102636.41
2022-08-08T18:11:15.013Z,102597.53
2022-08-08T18:13:46.330Z,102631.91
2022-08-08T18:16:20.967Z,102610.06
2022-08-08T18:18:56.245Z,102621.72
2022-08-08T18:21:59.749Z,102638.66
2022-08-08T18:24:19.393Z,102612.25
2022-08-08T18:26:53.707Z,102619.34
2022-08-08T18:29:27.236Z,102647.06
2022-08-08T18:31:59.484Z,102620.38
2022-08-08T18:34:29.535Z,102655.06
2022-08-08T18:37:04.604Z,102650.72
2022-08-08T18:39:35.052Z,102655.22
2022-08-08T18:42:13.032Z,102660.63
2022-08-08T18:44:55.916Z,102652.66
2022-08-08T18:47:27.428Z,102640.34
2022-08-08T18:50:00.035Z,102662.56
2022-08-08T18:52:30.519Z,102674.16
2022-08-08T18:55:09.846Z,102670.69
2022-08-08T18:57:43.517Z,102668.13
2022-08-08T19:00:19.908Z,102680.56
2022-08-08T19:02:56.774Z,102676.16
2022-08-08T19:05:31.749Z,102681.53
2022-08-08T19:08:25.521Z,102678.91
2022-08-08T19:10:58.874Z,102695.81
2022-08-08T19:13:53.338Z,102701.22
2022-08-08T19:16:19.298Z,102714.56
2022-08-08T19:18:59.975Z,102700.31
2022-08-08T19:21:48.601Z,102689.69
2022-08-08T19:24:38.869Z,102683.44
2022-08-08T19:27:07.745Z,102687.00
2022-08-08T19:29:42.468Z,102679.03
2022-08-08T19:32:21.969Z,102710.13
2022-08-08T19:34:51.792Z,102716.34
2022-08-08T19:37:42.229Z,102730.56
2022-08-08T19:40:16.059Z,102736.78
2022-08-08T19:42:45.934Z,102743.00
2022-08-08T19:45:57.280Z,102725.19
2022-08-08T19:48:05.856Z,102740.31
2022-08-08T19:50:38.389Z,102742.09
2022-08-08T19:53:51.068Z,102734.94
2022-08-08T19:55:56.609Z,102734.94
2022-08-08T19:58:25.233Z,102758.03
2022-08-08T20:00:57.717Z,102759.78
2022-08-08T20:04:01.519Z,102760.59
2022-08-08T20:06:18.035Z,102728.63
2022-08-08T20:08:48.216Z,102753.50
2022-08-08T20:11:18.647Z,102771.25
2022-08-08T20:14:32.241Z,102758.78
2022-08-08T20:16:41.756Z,102753.47
2022-08-08T20:19:10.474Z,102765.03
2022-08-08T20:21:39.726Z,102766.78
2022-08-08T20:24:10.762Z,102744.44
2022-08-08T20:26:41.620Z,102772.03
2022-08-08T20:29:16.078Z,102759.50
2022-08-08T20:31:47.095Z,102775.53
2022-08-08T20:34:33.067Z,102774.59
2022-08-08T20:37:06.240Z,102758.56
2022-08-08T20:39:41.479Z,102773.72
2022-08-08T20:42:23.853Z,102779.06
2022-08-08T20:44:59.594Z,102782.59
2022-08-08T20:47:36.580Z,102750.47
2022-08-08T20:50:09.944Z,102752.22
2022-08-08T20:52:39.990Z,102754.03
2022-08-08T20:55:22.340Z,102777.13
2022-08-08T20:57:51.569Z,102784.22
2022-08-08T21:00:22.136Z,102755.56
2022-08-08T21:02:52.660Z,102756.47
2022-08-08T21:05:21.618Z,102765.41
2022-08-08T21:08:34.418Z,102767.16
2022-08-08T21:10:42.695Z,102790.13
2022-08-08T21:13:11.446Z,102768.84
2022-08-08T21:16:04.745Z,102776.81
2022-08-08T21:18:28.495Z,102787.47
2022-08-08T21:20:57.154Z,102771.41
2022-08-08T21:24:02.159Z,102785.66
2022-08-08T21:26:26.854Z,102775.06
2022-08-08T21:29:00.553Z,102775.03
2022-08-08T21:31:57.709Z,102778.56
2022-08-08T21:34:19.029Z,102787.25
2022-08-08T21:36:49.296Z,102752.53
2022-08-08T21:39:18.645Z,102786.16
2022-08-08T21:41:59.185Z,102766.56
2022-08-08T21:44:27.840Z,102786.09
2022-08-08T21:48:06.451Z,102783.44
2022-08-08T21:49:44.526Z,102774.63
2022-08-08T21:54:32.788Z,102770.94
2022-08-08T21:55:04.512Z,102786.94
2022-08-08T21:58:05.323Z,102759.31
2022-08-08T22:00:40.619Z,102780.66
2022-08-08T22:03:10.908Z,102759.25
2022-08-08T22:05:43.921Z,102786.78
2022-08-08T22:08:12.406Z,102779.59
2022-08-08T22:10:43.184Z,102788.59
2022-08-08T22:13:18.671Z,102790.25
2022-08-08T22:15:58.741Z,102772.41
2022-08-08T22:18:31.568Z,102792.06
2022-08-08T22:21:14.032Z,102784.84
2022-08-08T22:23:50.526Z,102791.09
2022-08-08T22:26:28.711Z,102772.34
2022-08-08T22:29:13.632Z,102772.34
2022-08-08T22:32:00.462Z,102800.59
2022-08-08T22:34:33.163Z,102787.25
2022-08-08T22:37:15.103Z,102781.13
2022-08-08T22:40:00.533Z,102806.13
2022-08-08T22:42:32.042Z,102791.81
2022-08-08T22:45:12.572Z,102790.09
2022-08-08T22:47:47.375Z,102791.81
2022-08-08T22:50:25.618Z,102801.53
2022-08-08T22:53:22.438Z,102818.44
2022-08-08T22:55:58.723Z,102803.34
2022-08-08T22:58:32.972Z,102787.84
2022-08-08T23:01:16.700Z,102799.66
2022-08-08T23:03:55.529Z,102814.59
2022-08-08T23:06:25.316Z,102819.72
2022-08-08T23:08:55.668Z,102809.16
2022-08-08T23:11:31.161Z,102803.69
2022-08-08T23:14:17.411Z,102813.38
2022-08-08T23:16:54.813Z,102780.47
2022-08-08T23:19:27.010Z,102813.44
2022-08-08T23:21:55.297Z,102805.44
2022-08-08T23:24:23.815Z,102819.59
2022-08-08T23:26:53.363Z,102816.03
2022-08-08T23:29:27.120Z,102792.00
2022-08-08T23:31:59.989Z,102819.59
2022-08-08T23:34:31.016Z,102825.69
2022-08-08T23:37:00.604Z,102823.13
2022-08-08T23:39:41.831Z,102781.88
2022-08-08T23:42:17.866Z,102827.16
2022-08-08T23:44:50.445Z,102829.03
2022-08-08T23:49:01.115Z,102825.44
2022-08-08T23:50:30.192Z,102808.41
2022-08-08T23:53:03.557Z,102828.09
2022-08-08T23:55:42.007Z,102812.88
2022-08-08T23:58:37.715Z,102828.91
